sensor_id;sensor_type;location;lat;lon;timestamp;pressure;altitude;pressure_sealevel;temperature;humidity
1472;BME280;963;42.644;23.336;2023-08-07T00:01:43;93634.41;;;20.49;59.28
1472;BME280;963;42.644;23.336;2023-08-07T00:04:09;93629.94;;;20.46;59.54
1472;BME280;963;42.644;23.336;2023-08-07T00:06:34;93635.72;;;20.44;59.98
1472;BME280;963;42.644;23.336;2023-08-07T00:09:00;93638.56;;;20.50;60.07
1472;BME280;963;42.644;23.336;2023-08-07T00:11:25;93639.44;;;20.47;59.94
1472;BME280;963;42.644;23.336;2023-08-07T00:13:53;93627.13;;;20.37;60.19
1472;BME280;963;42.644;23.336;2023-08-07T00:16:18;93638.69;;;20.46;60.19
1472;BME280;963;42.644;23.336;2023-08-07T00:18:43;93648.28;;;20.44;60.11
1472;BME280;963;42.644;23.336;2023-08-07T00:21:09;93636.97;;;20.40;60.58
1472;BME280;963;42.644;23.336;2023-08-07T00:23:34;93631.63;;;20.40;60.28
1472;BME280;963;42.644;23.336;2023-08-07T00:26:00;93620.53;;;20.28;60.63
1472;BME280;963;42.644;23.336;2023-08-07T00:28:25;93638.47;;;20.41;60.35
1472;BME280;963;42.644;23.336;2023-08-07T00:30:50;93646.38;;;20.32;60.97
1472;BME280;963;42.644;23.336;2023-08-07T00:33:16;93636.31;;;20.36;60.76
1472;BME280;963;42.644;23.336;2023-08-07T00:35:41;93636.56;;;20.28;60.82
1472;BME280;963;42.644;23.336;2023-08-07T00:38:06;93636.03;;;20.21;61.20
1472;BME280;963;42.644;23.336;2023-08-07T00:40:39;93637.22;;;20.20;61.08
1472;BME280;963;42.644;23.336;2023-08-07T00:43:05;93647.25;;;20.03;62.30
1472;BME280;963;42.644;23.336;2023-08-07T00:45:36;93664.13;;;20.00;62.16
1472;BME280;963;42.644;23.336;2023-08-07T00:48:03;93656.25;;;20.09;61.93
1472;BME280;963;42.644;23.336;2023-08-07T00:50:29;93670.84;;;20.05;62.32
1472;BME280;963;42.644;23.336;2023-08-07T00:52:54;93678.44;;;20.06;62.15
1472;BME280;963;42.644;23.336;2023-08-07T00:55:20;93675.03;;;19.93;62.60
1472;BME280;963;42.644;23.336;2023-08-07T00:57:46;93681.34;;;19.86;63.02
1472;BME280;963;42.644;23.336;2023-08-07T01:00:12;93678.34;;;19.97;62.96
1472;BME280;963;42.644;23.336;2023-08-07T01:02:38;93684.97;;;19.92;63.20
1472;BME280;963;42.644;23.336;2023-08-07T01:05:04;93675.03;;;19.93;63.19
1472;BME280;963;42.644;23.336;2023-08-07T01:07:29;93680.16;;;19.75;63.81
1472;BME280;963;42.644;23.336;2023-08-07T01:09:55;93681.66;;;19.88;63.34
1472;BME280;963;42.644;23.336;2023-08-07T01:12:29;93679.72;;;19.89;63.70
1472;BME280;963;42.644;23.336;2023-08-07T01:15:03;93686.16;;;19.79;63.76
1472;BME280;963;42.644;23.336;2023-08-07T01:17:31;93703.44;;;19.87;64.30
1472;BME280;963;42.644;23.336;2023-08-07T01:19:59;93709.75;;;19.80;63.79
1472;BME280;963;42.644;23.336;2023-08-07T01:22:24;93703.34;;;19.90;64.02
1472;BME280;963;42.644;23.336;2023-08-07T01:24:50;93707.28;;;19.86;63.85
1472;BME280;963;42.644;23.336;2023-08-07T01:32:26;93704.41;;;19.80;64.44
1472;BME280;963;42.644;23.336;2023-08-07T01:34:52;93699.28;;;19.73;64.90
1472;BME280;963;42.644;23.336;2023-08-07T01:37:20;93686.34;;;19.72;64.71
1472;BME280;963;42.644;23.336;2023-08-07T01:39:46;93690.41;;;19.76;64.97
1472;BME280;963;42.644;23.336;2023-08-07T01:42:12;93679.31;;;19.78;65.10
1472;BME280;963;42.644;23.336;2023-08-07T01:44:38;93683.34;;;19.70;65.25
1472;BME280;963;42.644;23.336;2023-08-07T01:47:04;93731.91;;;19.64;65.21
1472;BME280;963;42.644;23.336;2023-08-07T01:49:29;93681.78;;;19.43;65.63
1472;BME280;963;42.644;23.336;2023-08-07T01:51:55;93710.06;;;19.41;65.90
1472;BME280;963;42.644;23.336;2023-08-07T01:54:20;93696.75;;;18.95;67.29
1472;BME280;963;42.644;23.336;2023-08-07T01:56:45;93706.78;;;18.91;67.54
1472;BME280;963;42.644;23.336;2023-08-07T01:59:11;93705.19;;;18.94;67.65
1472;BME280;963;42.644;23.336;2023-08-07T02:01:36;93704.53;;;18.90;67.71
1472;BME280;963;42.644;23.336;2023-08-07T02:04:03;93696.28;;;19.00;67.43
1472;BME280;963;42.644;23.336;2023-08-07T02:06:28;93696.13;;;18.91;68.05
1472;BME280;963;42.644;23.336;2023-08-07T02:08:54;93706.34;;;18.64;68.44
1472;BME280;963;42.644;23.336;2023-08-07T02:11:19;93707.53;;;18.92;68.00
1472;BME280;963;42.644;23.336;2023-08-07T02:13:45;93706.94;;;19.00;67.66
1472;BME280;963;42.644;23.336;2023-08-07T02:16:10;93707.28;;;19.02;67.22
1472;BME280;963;42.644;23.336;2023-08-07T02:18:35;93715.72;;;19.14;66.85
1472;BME280;963;42.644;23.336;2023-08-07T02:21:01;93716.69;;;19.20;66.97
1472;BME280;963;42.644;23.336;2023-08-07T02:23:26;93712.44;;;19.22;66.87
1472;BME280;963;42.644;23.336;2023-08-07T02:25:54;93723.53;;;19.21;67.11
1472;BME280;963;42.644;23.336;2023-08-07T02:28:19;93721.28;;;19.19;67.29
1472;BME280;963;42.644;23.336;2023-08-07T02:30:45;93728.03;;;19.24;67.47
1472;BME280;963;42.644;23.336;2023-08-07T02:33:14;93725.69;;;19.26;67.44
1472;BME280;963;42.644;23.336;2023-08-07T02:35:39;93730.59;;;19.27;67.42
1472;BME280;963;42.644;23.336;2023-08-07T02:38:05;93712.53;;;19.19;67.61
1472;BME280;963;42.644;23.336;2023-08-07T02:40:30;93707.28;;;19.02;67.75
1472;BME280;963;42.644;23.336;2023-08-07T02:42:55;93725.56;;;19.17;67.50
1472;BME280;963;42.644;23.336;2023-08-07T02:45:21;93719.97;;;19.11;67.42
1472;BME280;963;42.644;23.336;2023-08-07T02:47:46;93718.91;;;19.09;67.76
1472;BME280;963;42.644;23.336;2023-08-07T02:50:12;93720.59;;;19.02;68.07
1472;BME280;963;42.644;23.336;2023-08-07T02:52:37;93720.94;;;18.88;68.35
1472;BME280;963;42.644;23.336;2023-08-07T02:55:03;93726.13;;;18.79;68.63
1472;BME280;963;42.644;23.336;2023-08-07T02:57:29;93729.44;;;18.83;68.72
1472;BME280;963;42.644;23.336;2023-08-07T02:59:54;93737.25;;;18.90;68.70
1472;BME280;963;42.644;23.336;2023-08-07T03:02:19;93733.00;;;18.93;67.93
1472;BME280;963;42.644;23.336;2023-08-07T03:04:45;93738.19;;;19.00;68.01
1472;BME280;963;42.644;23.336;2023-08-07T03:07:10;93730.44;;;18.89;68.08
1472;BME280;963;42.644;23.336;2023-08-07T03:09:36;93755.41;;;18.95;67.99
1472;BME280;963;42.644;23.336;2023-08-07T03:12:01;93743.94;;;18.98;68.09
1472;BME280;963;42.644;23.336;2023-08-07T03:14:29;93747.75;;;18.97;68.05
1472;BME280;963;42.644;23.336;2023-08-07T03:16:55;93741.00;;;18.93;67.85
1472;BME280;963;42.644;23.336;2023-08-07T03:19:20;93739.50;;;18.92;68.11
1472;BME280;963;42.644;23.336;2023-08-07T03:21:47;93751.59;;;18.96;67.68
1472;BME280;963;42.644;23.336;2023-08-07T03:24:12;93759.75;;;18.89;68.18
1472;BME280;963;42.644;23.336;2023-08-07T03:26:37;93767.22;;;18.94;68.65
1472;BME280;963;42.644;23.336;2023-08-07T03:29:03;93764.75;;;18.87;68.36
1472;BME280;963;42.644;23.336;2023-08-07T03:31:28;93777.16;;;18.94;68.37
1472;BME280;963;42.644;23.336;2023-08-07T03:33:54;93779.41;;;18.95;68.50
1472;BME280;963;42.644;23.336;2023-08-07T03:36:19;93782.47;;;18.94;68.43
1472;BME280;963;42.644;23.336;2023-08-07T03:38:44;93784.81;;;18.92;68.55
1472;BME280;963;42.644;23.336;2023-08-07T03:41:10;93775.66;;;18.93;68.71
1472;BME280;963;42.644;23.336;2023-08-07T03:43:35;93790.41;;;18.97;68.15
1472;BME280;963;42.644;23.336;2023-08-07T03:46:01;93807.72;;;19.05;67.95
1472;BME280;963;42.644;23.336;2023-08-07T03:48:26;93788.06;;;18.99;68.18
1472;BME280;963;42.644;23.336;2023-08-07T03:50:51;93792.47;;;19.06;68.05
1472;BME280;963;42.644;23.336;2023-08-07T03:53:17;93795.91;;;19.07;67.81
1472;BME280;963;42.644;23.336;2023-08-07T03:55:42;93793.88;;;19.11;67.82
1472;BME280;963;42.644;23.336;2023-08-07T03:58:10;93810.72;;;19.08;67.55
1472;BME280;963;42.644;23.336;2023-08-07T04:00:35;93806.06;;;18.95;67.69
1472;BME280;963;42.644;23.336;2023-08-07T04:03:01;93805.81;;;19.06;67.56
1472;BME280;963;42.644;23.336;2023-08-07T04:05:26;93811.91;;;19.07;67.21
1472;BME280;963;42.644;23.336;2023-08-07T04:07:52;93821.28;;;18.95;67.43
1472;BME280;963;42.644;23.336;2023-08-07T04:10:17;93819.03;;;18.93;67.59
1472;BME280;963;42.644;23.336;2023-08-07T04:12:43;93821.56;;;19.00;66.47
1472;BME280;963;42.644;23.336;2023-08-07T04:15:09;93817.56;;;19.09;66.51
1472;BME280;963;42.644;23.336;2023-08-07T04:17:35;93813.06;;;19.05;66.22
1472;BME280;963;42.644;23.336;2023-08-07T04:20:01;93816.06;;;19.08;65.83
1472;BME280;963;42.644;23.336;2023-08-07T04:22:28;93813.06;;;19.05;65.76
1472;BME280;963;42.644;23.336;2023-08-07T04:24:54;93822.03;;;19.12;65.50
1472;BME280;963;42.644;23.336;2023-08-07T04:27:19;93831.88;;;19.15;65.60
1472;BME280;963;42.644;23.336;2023-08-07T04:29:44;93816.91;;;19.04;65.89
1472;BME280;963;42.644;23.336;2023-08-07T04:32:10;93842.53;;;19.15;65.91
1472;BME280;963;42.644;23.336;2023-08-07T04:34:35;93837.22;;;19.15;66.10
1472;BME280;963;42.644;23.336;2023-08-07T04:37:01;93853.19;;;19.15;66.28
1472;BME280;963;42.644;23.336;2023-08-07T04:39:26;93835.63;;;19.17;66.04
1472;BME280;963;42.644;23.336;2023-08-07T04:41:52;93831.22;;;19.11;66.03
1472;BME280;963;42.644;23.336;2023-08-07T04:44:17;93827.19;;;19.19;65.79
1472;BME280;963;42.644;23.336;2023-08-07T04:46:43;93837.44;;;19.20;65.64
1472;BME280;963;42.644;23.336;2023-08-07T04:49:08;93840.88;;;19.21;66.03
1472;BME280;963;42.644;23.336;2023-08-07T04:51:33;93836.91;;;18.96;66.33
1472;BME280;963;42.644;23.336;2023-08-07T04:53:59;93822.97;;;19.05;66.34
1472;BME280;963;42.644;23.336;2023-08-07T04:56:24;93839.69;;;19.22;65.59
1472;BME280;963;42.644;23.336;2023-08-07T04:58:50;93862.53;;;19.23;65.41
1472;BME280;963;42.644;23.336;2023-08-07T05:01:15;93821.44;;;19.20;65.44
1472;BME280;963;42.644;23.336;2023-08-07T05:03:41;93836.44;;;19.30;65.17
1472;BME280;963;42.644;23.336;2023-08-07T05:06:06;93829.59;;;19.29;64.93
1472;BME280;963;42.644;23.336;2023-08-07T05:08:31;93842.28;;;19.25;65.16
1472;BME280;963;42.644;23.336;2023-08-07T05:10:57;93821.75;;;19.39;64.79
1472;BME280;963;42.644;23.336;2023-08-07T05:13:22;93826.59;;;19.44;64.43
1472;BME280;963;42.644;23.336;2023-08-07T05:15:48;93839.81;;;19.47;64.68
1472;BME280;963;42.644;23.336;2023-08-07T05:18:14;93832.47;;;19.51;64.85
1472;BME280;963;42.644;23.336;2023-08-07T05:20:39;93837.00;;;19.54;64.73
1472;BME280;963;42.644;23.336;2023-08-07T05:23:05;93836.16;;;19.57;64.25
1472;BME280;963;42.644;23.336;2023-08-07T05:25:30;93825.47;;;19.57;64.54
1472;BME280;963;42.644;23.336;2023-08-07T05:27:55;93808.00;;;19.40;64.82
1472;BME280;963;42.644;23.336;2023-08-07T05:30:21;93810.31;;;19.54;64.14
1472;BME280;963;42.644;23.336;2023-08-07T05:32:47;93843.56;;;19.66;64.01
1472;BME280;963;42.644;23.336;2023-08-07T05:35:12;93823.63;;;19.71;63.98
1472;BME280;963;42.644;23.336;2023-08-07T05:37:38;93827.44;;;19.70;63.91
1472;BME280;963;42.644;23.336;2023-08-07T05:40:05;93816.13;;;19.65;63.26
1472;BME280;963;42.644;23.336;2023-08-07T05:42:30;93830.47;;;19.72;63.31
1472;BME280;963;42.644;23.336;2023-08-07T05:44:56;93818.75;;;19.82;63.09
1472;BME280;963;42.644;23.336;2023-08-07T05:47:21;93809.00;;;19.75;62.90
1472;BME280;963;42.644;23.336;2023-08-07T05:49:46;93827.19;;;19.80;62.50
1472;BME280;963;42.644;23.336;2023-08-07T05:52:12;93828.56;;;19.85;63.02
1472;BME280;963;42.644;23.336;2023-08-07T05:54:37;93824.53;;;19.93;63.01
1472;BME280;963;42.644;23.336;2023-08-07T05:57:03;93837.56;;;20.04;62.59
1472;BME280;963;42.644;23.336;2023-08-07T05:59:28;93830.13;;;20.11;61.59
1472;BME280;963;42.644;23.336;2023-08-07T06:01:54;93824.16;;;20.07;61.61
1472;BME280;963;42.644;23.336;2023-08-07T06:04:20;93826.47;;;20.05;61.88
1472;BME280;963;42.644;23.336;2023-08-07T06:06:46;93833.97;;;20.10;61.25
1472;BME280;963;42.644;23.336;2023-08-07T06:09:12;93837.09;;;20.21;61.07
1472;BME280;963;42.644;23.336;2023-08-07T06:11:39;93825.97;;;20.10;61.56
1472;BME280;963;42.644;23.336;2023-08-07T06:14:05;93814.22;;;20.20;61.13
1472;BME280;963;42.644;23.336;2023-08-07T06:16:30;93825.66;;;20.34;61.01
1472;BME280;963;42.644;23.336;2023-08-07T06:18:56;93818.28;;;20.38;60.72
1472;BME280;963;42.644;23.336;2023-08-07T06:21:22;93817.03;;;20.42;61.31
1472;BME280;963;42.644;23.336;2023-08-07T06:23:47;93821.22;;;20.56;61.35
1472;BME280;963;42.644;23.336;2023-08-07T06:26:13;93829.56;;;20.58;60.86
1472;BME280;963;42.644;23.336;2023-08-07T06:28:38;93814.28;;;20.58;60.76
1472;BME280;963;42.644;23.336;2023-08-07T06:31:08;93798.88;;;20.63;60.28
1472;BME280;963;42.644;23.336;2023-08-07T06:33:33;93813.72;;;20.76;59.80
1472;BME280;963;42.644;23.336;2023-08-07T06:36:00;93809.88;;;20.77;59.20
1472;BME280;963;42.644;23.336;2023-08-07T06:38:25;93804.22;;;20.75;59.13
1472;BME280;963;42.644;23.336;2023-08-07T06:40:51;93809.44;;;20.91;56.99
1472;BME280;963;42.644;23.336;2023-08-07T06:43:16;93816.59;;;20.95;55.61
1472;BME280;963;42.644;23.336;2023-08-07T06:45:42;93806.41;;;21.02;55.16
1472;BME280;963;42.644;23.336;2023-08-07T06:48:07;93811.97;;;21.08;54.46
1472;BME280;963;42.644;23.336;2023-08-07T06:50:32;93815.47;;;21.17;53.79
1472;BME280;963;42.644;23.336;2023-08-07T06:52:58;93806.91;;;21.22;52.35
1472;BME280;963;42.644;23.336;2023-08-07T06:55:23;93820.72;;;21.21;52.24
1472;BME280;963;42.644;23.336;2023-08-07T06:57:49;93828.22;;;21.26;52.19
1472;BME280;963;42.644;23.336;2023-08-07T07:00:15;93827.88;;;21.37;51.50
1472;BME280;963;42.644;23.336;2023-08-07T07:02:41;93817.06;;;21.40;49.85
1472;BME280;963;42.644;23.336;2023-08-07T07:05:06;93824.53;;;21.45;50.43
1472;BME280;963;42.644;23.336;2023-08-07T07:07:32;93831.56;;;21.52;50.21
1472;BME280;963;42.644;23.336;2023-08-07T07:09:57;93806.72;;;21.51;50.12
1472;BME280;963;42.644;23.336;2023-08-07T07:12:29;93807.91;;;21.50;50.71
1472;BME280;963;42.644;23.336;2023-08-07T07:14:54;93823.22;;;21.50;50.57
1472;BME280;963;42.644;23.336;2023-08-07T07:17:20;93805.97;;;21.29;50.55
1472;BME280;963;42.644;23.336;2023-08-07T07:19:45;93819.22;;;21.33;51.30
1472;BME280;963;42.644;23.336;2023-08-07T07:22:11;93813.25;;;21.50;51.47
1472;BME280;963;42.644;23.336;2023-08-07T07:24:38;93819.97;;;21.55;51.41
1472;BME280;963;42.644;23.336;2023-08-07T07:27:03;93823.94;;;21.63;52.01
1472;BME280;963;42.644;23.336;2023-08-07T07:29:29;93822.88;;;21.26;52.87
1472;BME280;963;42.644;23.336;2023-08-07T07:31:54;93812.13;;;21.39;53.51
1472;BME280;963;42.644;23.336;2023-08-07T07:34:20;93814.69;;;21.42;53.08
1472;BME280;963;42.644;23.336;2023-08-07T07:36:46;93802.97;;;21.62;52.18
1472;BME280;963;42.644;23.336;2023-08-07T07:39:11;93811.97;;;21.77;51.89
1472;BME280;963;42.644;23.336;2023-08-07T07:41:37;93826.13;;;21.77;52.96
1472;BME280;963;42.644;23.336;2023-08-07T07:44:02;93811.72;;;21.84;52.08
1472;BME280;963;42.644;23.336;2023-08-07T07:46:28;93814.97;;;22.01;51.69
1472;BME280;963;42.644;23.336;2023-08-07T07:48:53;93823.13;;;21.97;52.10
1472;BME280;963;42.644;23.336;2023-08-07T07:51:21;93797.16;;;22.07;51.86
1472;BME280;963;42.644;23.336;2023-08-07T07:53:46;93802.16;;;21.96;52.20
1472;BME280;963;42.644;23.336;2023-08-07T07:56:12;93795.03;;;21.80;52.36
1472;BME280;963;42.644;23.336;2023-08-07T07:58:37;93804.03;;;22.08;51.69
1472;BME280;963;42.644;23.336;2023-08-07T08:01:02;93817.38;;;21.86;52.14
1472;BME280;963;42.644;23.336;2023-08-07T08:03:28;93803.75;;;22.15;51.58
1472;BME280;963;42.644;23.336;2023-08-07T08:05:53;93801.00;;;21.84;52.03
1472;BME280;963;42.644;23.336;2023-08-07T08:08:19;93796.03;;;21.95;52.07
1472;BME280;963;42.644;23.336;2023-08-07T08:10:47;93796.50;;;22.25;50.29
1472;BME280;963;42.644;23.336;2023-08-07T08:13:14;93808.34;;;22.36;50.67
1472;BME280;963;42.644;23.336;2023-08-07T08:15:39;93795.56;;;22.40;50.41
1472;BME280;963;42.644;23.336;2023-08-07T08:18:05;93806.44;;;22.46;50.10
1472;BME280;963;42.644;23.336;2023-08-07T08:20:30;93821.38;;;22.56;50.17
1472;BME280;963;42.644;23.336;2023-08-07T08:22:57;93803.72;;;22.37;51.08
1472;BME280;963;42.644;23.336;2023-08-07T08:25:23;93799.63;;;22.54;50.69
1472;BME280;963;42.644;23.336;2023-08-07T08:27:48;93784.31;;;22.64;49.70
1472;BME280;963;42.644;23.336;2023-08-07T08:30:16;93800.00;;;22.74;49.42
1472;BME280;963;42.644;23.336;2023-08-07T08:32:43;93801.13;;;22.64;50.72
1472;BME280;963;42.644;23.336;2023-08-07T08:35:08;93787.38;;;22.44;51.07
1472;BME280;963;42.644;23.336;2023-08-07T08:37:34;93786.44;;;22.69;50.05
1472;BME280;963;42.644;23.336;2023-08-07T08:40:00;93787.63;;;22.77;49.16
1472;BME280;963;42.644;23.336;2023-08-07T08:42:26;93776.38;;;22.91;49.86
1472;BME280;963;42.644;23.336;2023-08-07T08:44:53;93779.34;;;22.93;49.31
1472;BME280;963;42.644;23.336;2023-08-07T08:47:20;93783.53;;;23.03;49.05
1472;BME280;963;42.644;23.336;2023-08-07T08:49:47;93785.34;;;23.06;49.20
1472;BME280;963;42.644;23.336;2023-08-07T08:52:15;93776.13;;;23.17;47.95
1472;BME280;963;42.644;23.336;2023-08-07T08:54:41;93780.13;;;23.30;48.01
1472;BME280;963;42.644;23.336;2023-08-07T08:57:07;93786.09;;;23.34;48.37
1472;BME280;963;42.644;23.336;2023-08-07T08:59:33;93776.28;;;23.50;47.32
1472;BME280;963;42.644;23.336;2023-08-07T09:01:59;93771.34;;;23.39;47.23
1472;BME280;963;42.644;23.336;2023-08-07T09:04:25;93771.50;;;23.35;47.47
1472;BME280;963;42.644;23.336;2023-08-07T09:06:50;93771.22;;;23.52;46.84
1472;BME280;963;42.644;23.336;2023-08-07T09:09:17;93776.88;;;23.63;46.47
1472;BME280;963;42.644;23.336;2023-08-07T09:11:45;93771.94;;;23.70;45.94
1472;BME280;963;42.644;23.336;2023-08-07T09:14:19;93763.88;;;23.70;47.04
1472;BME280;963;42.644;23.336;2023-08-07T09:16:48;93769.13;;;23.83;46.14
1472;BME280;963;42.644;23.336;2023-08-07T09:19:15;93765.53;;;23.86;45.56
1472;BME280;963;42.644;23.336;2023-08-07T09:21:40;93771.97;;;23.80;46.42
1472;BME280;963;42.644;23.336;2023-08-07T09:24:06;93774.19;;;23.63;46.23
1472;BME280;963;42.644;23.336;2023-08-07T09:26:34;93779.13;;;23.83;46.71
1472;BME280;963;42.644;23.336;2023-08-07T09:29:01;93746.91;;;23.46;46.01
1472;BME280;963;42.644;23.336;2023-08-07T09:31:27;93746.13;;;23.73;45.53
1472;BME280;963;42.644;23.336;2023-08-07T09:33:52;93749.72;;;23.79;46.27
1472;BME280;963;42.644;23.336;2023-08-07T09:36:18;93745.03;;;23.98;45.44
1472;BME280;963;42.644;23.336;2023-08-07T09:38:49;93745.53;;;23.78;45.51
1472;BME280;963;42.644;23.336;2023-08-07T09:41:17;93740.13;;;23.96;46.44
1472;BME280;963;42.644;23.336;2023-08-07T09:43:44;93748.56;;;24.13;47.43
1472;BME280;963;42.644;23.336;2023-08-07T09:46:09;93742.28;;;24.25;46.83
1472;BME280;963;42.644;23.336;2023-08-07T09:48:40;93745.63;;;24.53;47.01
1472;BME280;963;42.644;23.336;2023-08-07T09:51:05;93751.31;;;24.46;45.35
1472;BME280;963;42.644;23.336;2023-08-07T09:53:31;93741.41;;;24.61;47.03
1472;BME280;963;42.644;23.336;2023-08-07T09:55:57;93741.00;;;24.78;46.11
1472;BME280;963;42.644;23.336;2023-08-07T09:58:24;93737.22;;;24.84;44.87
1472;BME280;963;42.644;23.336;2023-08-07T10:00:50;93743.41;;;24.76;43.92
1472;BME280;963;42.644;23.336;2023-08-07T10:03:18;93747.00;;;24.73;43.66
1472;BME280;963;42.644;23.336;2023-08-07T10:05:44;93748.16;;;24.57;44.04
1472;BME280;963;42.644;23.336;2023-08-07T10:08:11;93745.75;;;24.59;44.27
1472;BME280;963;42.644;23.336;2023-08-07T10:10:38;93730.06;;;24.57;44.60
1472;BME280;963;42.644;23.336;2023-08-07T10:13:04;93736.66;;;24.80;44.21
1472;BME280;963;42.644;23.336;2023-08-07T10:15:31;93748.97;;;24.96;44.01
1472;BME280;963;42.644;23.336;2023-08-07T10:17:58;93741.78;;;25.02;44.31
1472;BME280;963;42.644;23.336;2023-08-07T10:20:28;93726.41;;;24.93;44.51
1472;BME280;963;42.644;23.336;2023-08-07T10:23:01;93744.19;;;25.00;44.57
1472;BME280;963;42.644;23.336;2023-08-07T10:25:30;93740.28;;;25.01;44.38
1472;BME280;963;42.644;23.336;2023-08-07T10:27:57;93731.44;;;25.24;44.36
1472;BME280;963;42.644;23.336;2023-08-07T10:30:25;93754.69;;;25.37;43.88
1472;BME280;963;42.644;23.336;2023-08-07T10:32:52;93749.16;;;25.55;43.61
1472;BME280;963;42.644;23.336;2023-08-07T10:35:25;93745.31;;;25.47;43.04
1472;BME280;963;42.644;23.336;2023-08-07T10:37:52;93745.34;;;25.62;43.42
1472;BME280;963;42.644;23.336;2023-08-07T10:40:18;93712.59;;;25.78;43.10
1472;BME280;963;42.644;23.336;2023-08-07T10:43:10;93728.22;;;26.03;42.40
1472;BME280;963;42.644;23.336;2023-08-07T10:45:36;93724.28;;;26.19;42.05
1472;BME280;963;42.644;23.336;2023-08-07T10:50:34;93722.25;;;26.14;41.94
1472;BME280;963;42.644;23.336;2023-08-07T10:53:02;93725.94;;;26.31;42.00
1472;BME280;963;42.644;23.336;2023-08-07T10:55:43;93721.88;;;25.92;41.70
1472;BME280;963;42.644;23.336;2023-08-07T10:58:23;93722.06;;;26.17;41.50
1472;BME280;963;42.644;23.336;2023-08-07T11:00:52;93724.81;;;26.53;41.33
1472;BME280;963;42.644;23.336;2023-08-07T11:03:40;93706.50;;;26.77;40.82
1472;BME280;963;42.644;23.336;2023-08-07T11:06:05;93712.91;;;27.00;40.65
1472;BME280;963;42.644;23.336;2023-08-07T11:08:31;93701.66;;;27.22;40.28
1472;BME280;963;42.644;23.336;2023-08-07T11:10:57;93704.19;;;27.31;40.22
1472;BME280;963;42.644;23.336;2023-08-07T11:13:29;93695.94;;;27.40;39.68
1472;BME280;963;42.644;23.336;2023-08-07T11:15:54;93705.78;;;27.17;39.95
1472;BME280;963;42.644;23.336;2023-08-07T11:18:22;93687.28;;;27.56;39.53
1472;BME280;963;42.644;23.336;2023-08-07T11:20:48;93676.88;;;27.75;39.67
1472;BME280;963;42.644;23.336;2023-08-07T11:23:13;93680.16;;;27.59;39.58
1472;BME280;963;42.644;23.336;2023-08-07T11:25:39;93668.13;;;27.86;39.74
1472;BME280;963;42.644;23.336;2023-08-07T11:28:04;93668.88;;;28.23;39.16
1472;BME280;963;42.644;23.336;2023-08-07T11:30:29;93678.09;;;28.31;39.10
1472;BME280;963;42.644;23.336;2023-08-07T11:32:56;93658.03;;;28.55;38.21
1472;BME280;963;42.644;23.336;2023-08-07T11:35:22;93668.09;;;28.17;38.00
1472;BME280;963;42.644;23.336;2023-08-07T11:37:47;93664.31;;;27.98;38.40
1472;BME280;963;42.644;23.336;2023-08-07T11:40:13;93668.78;;;28.38;38.53
1472;BME280;963;42.644;23.336;2023-08-07T11:42:40;93666.28;;;28.35;38.13
1472;BME280;963;42.644;23.336;2023-08-07T11:45:06;93669.00;;;28.35;38.62
1472;BME280;963;42.644;23.336;2023-08-07T11:47:32;93674.00;;;28.47;37.97
1472;BME280;963;42.644;23.336;2023-08-07T11:49:58;93679.16;;;28.51;38.25
1472;BME280;963;42.644;23.336;2023-08-07T11:52:24;93671.28;;;28.47;37.99
1472;BME280;963;42.644;23.336;2023-08-07T11:54:52;93668.00;;;28.00;37.92
1472;BME280;963;42.644;23.336;2023-08-07T11:57:19;93670.09;;;28.22;38.05
1472;BME280;963;42.644;23.336;2023-08-07T11:59:50;93669.72;;;28.29;37.58
1472;BME280;963;42.644;23.336;2023-08-07T12:02:15;93668.38;;;28.19;38.04
1472;BME280;963;42.644;23.336;2023-08-07T12:04:41;93671.56;;;27.86;38.14
1472;BME280;963;42.644;23.336;2023-08-07T12:07:06;93656.63;;;27.91;38.06
1472;BME280;963;42.644;23.336;2023-08-07T12:09:36;93661.59;;;27.98;37.89
1472;BME280;963;42.644;23.336;2023-08-07T12:12:02;93671.06;;;28.19;37.87
1472;BME280;963;42.644;23.336;2023-08-07T12:14:31;93656.44;;;28.31;38.33
1472;BME280;963;42.644;23.336;2023-08-07T12:16:57;93649.09;;;28.38;38.02
1472;BME280;963;42.644;23.336;2023-08-07T12:19:22;93646.97;;;28.21;38.04
1472;BME280;963;42.644;23.336;2023-08-07T12:21:48;93646.13;;;28.36;37.95
1472;BME280;963;42.644;23.336;2023-08-07T12:24:13;93656.28;;;28.52;37.47
1472;BME280;963;42.644;23.336;2023-08-07T12:26:39;93650.66;;;28.61;37.28
1472;BME280;963;42.644;23.336;2023-08-07T12:29:04;93650.16;;;28.57;38.09
1472;BME280;963;42.644;23.336;2023-08-07T12:31:29;93654.75;;;28.02;38.08
1472;BME280;963;42.644;23.336;2023-08-07T12:33:55;93639.94;;;28.29;38.17
1472;BME280;963;42.644;23.336;2023-08-07T12:36:20;93647.38;;;28.40;38.94
1472;BME280;963;42.644;23.336;2023-08-07T12:38:46;93636.16;;;28.21;39.03
1472;BME280;963;42.644;23.336;2023-08-07T12:41:11;93641.75;;;28.44;38.67
1472;BME280;963;42.644;23.336;2023-08-07T12:43:37;93640.13;;;28.63;38.58
1472;BME280;963;42.644;23.336;2023-08-07T12:46:02;93652.91;;;28.62;38.58
1472;BME280;963;42.644;23.336;2023-08-07T12:48:27;93643.88;;;28.82;38.76
1472;BME280;963;42.644;23.336;2023-08-07T12:50:54;93650.91;;;29.06;38.18
1472;BME280;963;42.644;23.336;2023-08-07T12:53:19;93670.59;;;29.01;38.24
1472;BME280;963;42.644;23.336;2023-08-07T12:55:44;93669.06;;;28.94;37.93
1472;BME280;963;42.644;23.336;2023-08-07T12:58:10;93669.13;;;29.11;37.55
1472;BME280;963;42.644;23.336;2023-08-07T13:00:36;93671.63;;;29.20;37.49
1472;BME280;963;42.644;23.336;2023-08-07T13:03:02;93673.78;;;29.05;38.87
1472;BME280;963;42.644;23.336;2023-08-07T13:05:28;93681.25;;;29.32;38.03
1472;BME280;963;42.644;23.336;2023-08-07T13:07:53;93668.97;;;29.42;37.97
1472;BME280;963;42.644;23.336;2023-08-07T13:10:21;93663.09;;;29.49;37.27
1472;BME280;963;42.644;23.336;2023-08-07T13:12:47;93666.81;;;29.69;37.87
1472;BME280;963;42.644;23.336;2023-08-07T13:15:14;93666.59;;;29.78;37.60
1472;BME280;963;42.644;23.336;2023-08-07T13:17:40;93676.16;;;29.68;38.13
1472;BME280;963;42.644;23.336;2023-08-07T13:20:07;93666.25;;;29.42;37.98
1472;BME280;963;42.644;23.336;2023-08-07T13:22:51;93672.09;;;29.13;38.93
1472;BME280;963;42.644;23.336;2023-08-07T13:25:16;93683.84;;;28.99;38.77